sensor_id;sensor_type;location;lat;lon;timestamp;temperature;humidity
20102;DHT22;10210;52.284;9.892;2023-01-25T00:00:26;4.20;99.90
20102;DHT22;10210;52.284;9.892;2023-01-25T00:02:52;4.20;99.90
20102;DHT22;10210;52.284;9.892;2023-01-25T00:05:18;4.10;99.90
20102;DHT22;10210;52.284;9.892;2023-01-25T00:07:45;4.10;99.90
20102;DHT22;10210;52.284;9.892;2023-01-25T00:10:10;4.20;99.90
20102;DHT22;10210;52.284;9.892;2023-01-25T00:12:36;4.10;99.90
20102;DHT22;10210;52.284;9.892;2023-01-25T00:15:01;4.20;99.90
20102;DHT22;10210;52.284;9.892;2023-01-25T00:17:27;4.10;99.90
20102;DHT22;10210;52.284;9.892;2023-01-25T00:19:53;4.10;99.90
20102;DHT22;10210;52.284;9.892;2023-01-25T00:22:19;4.10;99.90
20102;DHT22;10210;52.284;9.892;2023-01-25T00:24:45;4.10;99.90
20102;DHT22;10210;52.284;9.892;2023-01-25T00:27:10;4.00;99.90
20102;DHT22;10210;52.284;9.892;2023-01-25T00:29:36;4.00;99.90
20102;DHT22;10210;52.284;9.892;2023-01-25T00:34:53;4.00;99.90
20102;DHT22;10210;52.284;9.892;2023-01-25T00:37:26;4.00;99.90
20102;DHT22;10210;52.284;9.892;2023-01-25T00:39:54;4.00;99.90
20102;DHT22;10210;52.284;9.892;2023-01-25T00:42:20;4.00;99.90
20102;DHT22;10210;52.284;9.892;2023-01-25T00:44:47;4.10;99.90
20102;DHT22;10210;52.284;9.892;2023-01-25T00:47:14;4.10;99.90
20102;DHT22;10210;52.284;9.892;2023-01-25T00:49:41;4.10;99.90
20102;DHT22;10210;52.284;9.892;2023-01-25T00:52:08;4.10;99.90
20102;DHT22;10210;52.284;9.892;2023-01-25T00:54:34;4.10;99.90
20102;DHT22;10210;52.284;9.892;2023-01-25T00:57:00;4.00;99.90
20102;DHT22;10210;52.284;9.892;2023-01-25T00:59:26;4.10;99.90
20102;DHT22;10210;52.284;9.892;2023-01-25T01:01:52;4.00;99.90
20102;DHT22;10210;52.284;9.892;2023-01-25T01:04:19;4.00;99.90
20102;DHT22;10210;52.284;9.892;2023-01-25T01:06:49;4.00;99.90
20102;DHT22;10210;52.284;9.892;2023-01-25T01:09:18;4.00;99.90
20102;DHT22;10210;52.284;9.892;2023-01-25T01:11:46;4.00;99.90
20102;DHT22;10210;52.284;9.892;2023-01-25T01:14:12;4.00;99.90
20102;DHT22;10210;52.284;9.892;2023-01-25T01:16:38;4.00;99.90
20102;DHT22;10210;52.284;9.892;2023-01-25T01:19:04;4.00;99.90
20102;DHT22;10210;52.284;9.892;2023-01-25T01:21:30;4.00;99.90
20102;DHT22;10210;52.284;9.892;2023-01-25T01:23:56;4.00;99.90
20102;DHT22;10210;52.284;9.892;2023-01-25T01:26:22;4.00;99.90
20102;DHT22;10210;52.284;9.892;2023-01-25T01:28:48;4.00;99.90
20102;DHT22;10210;52.284;9.892;2023-01-25T01:31:17;4.00;99.90
20102;DHT22;10210;52.284;9.892;2023-01-25T01:33:48;4.00;99.90
20102;DHT22;10210;52.284;9.892;2023-01-25T01:36:16;4.00;99.90
20102;DHT22;10210;52.284;9.892;2023-01-25T01:38:43;4.00;99.90
20102;DHT22;10210;52.284;9.892;2023-01-25T01:41:10;4.00;99.90
20102;DHT22;10210;52.284;9.892;2023-01-25T01:43:36;4.00;99.90
20102;DHT22;10210;52.284;9.892;2023-01-25T01:57:01;3.90;99.90
20102;DHT22;10210;52.284;9.892;2023-01-25T01:59:43;3.90;99.90
20102;DHT22;10210;52.284;9.892;2023-01-25T02:02:18;3.90;99.90
20102;DHT22;10210;52.284;9.892;2023-01-25T02:04:46;3.90;99.90
20102;DHT22;10210;52.284;9.892;2023-01-25T02:07:28;3.90;99.90
20102;DHT22;10210;52.284;9.892;2023-01-25T02:09:57;3.90;99.90
20102;DHT22;10210;52.284;9.892;2023-01-25T02:12:25;3.90;99.90
20102;DHT22;10210;52.284;9.892;2023-01-25T02:14:53;3.90;99.90
20102;DHT22;10210;52.284;9.892;2023-01-25T02:17:25;3.90;99.90
20102;DHT22;10210;52.284;9.892;2023-01-25T02:20:16;3.90;99.90
20102;DHT22;10210;52.284;9.892;2023-01-25T02:22:55;3.90;99.90
20102;DHT22;10210;52.284;9.892;2023-01-25T02:25:26;3.90;99.90
20102;DHT22;10210;52.284;9.892;2023-01-25T02:27:58;3.90;99.90
20102;DHT22;10210;52.284;9.892;2023-01-25T02:30:31;3.90;99.90
20102;DHT22;10210;52.284;9.892;2023-01-25T02:32:57;3.80;99.90
20102;DHT22;10210;52.284;9.892;2023-01-25T02:35:36;3.90;99.90
20102;DHT22;10210;52.284;9.892;2023-01-25T02:38:04;3.80;99.90
20102;DHT22;10210;52.284;9.892;2023-01-25T02:40:32;3.80;99.90
20102;DHT22;10210;52.284;9.892;2023-01-25T02:43:05;3.70;99.90
20102;DHT22;10210;52.284;9.892;2023-01-25T02:45:30;3.80;99.90
20102;DHT22;10210;52.284;9.892;2023-01-25T02:47:57;3.70;99.90
20102;DHT22;10210;52.284;9.892;2023-01-25T02:50:22;3.70;99.90
20102;DHT22;10210;52.284;9.892;2023-01-25T02:52:48;3.70;99.90
20102;DHT22;10210;52.284;9.892;2023-01-25T02:55:13;3.70;99.90
20102;DHT22;10210;52.284;9.892;2023-01-25T02:57:39;3.70;99.90
20102;DHT22;10210;52.284;9.892;2023-01-25T03:00:06;3.70;99.90
20102;DHT22;10210;52.284;9.892;2023-01-25T03:02:32;3.70;99.90
20102;DHT22;10210;52.284;9.892;2023-01-25T03:04:58;3.70;99.90
20102;DHT22;10210;52.284;9.892;2023-01-25T03:07:23;3.60;99.90
20102;DHT22;10210;52.284;9.892;2023-01-25T03:09:49;3.60;99.90
20102;DHT22;10210;52.284;9.892;2023-01-25T03:12:15;3.60;99.90
20102;DHT22;10210;52.284;9.892;2023-01-25T03:14:40;3.60;99.90
20102;DHT22;10210;52.284;9.892;2023-01-25T03:17:08;3.60;99.90
20102;DHT22;10210;52.284;9.892;2023-01-25T03:19:34;3.50;99.90
20102;DHT22;10210;52.284;9.892;2023-01-25T03:22:00;3.50;99.90
20102;DHT22;10210;52.284;9.892;2023-01-25T03:24:25;3.50;99.90
20102;DHT22;10210;52.284;9.892;2023-01-25T03:26:51;3.50;99.90
20102;DHT22;10210;52.284;9.892;2023-01-25T03:29:35;3.50;99.90
20102;DHT22;10210;52.284;9.892;2023-01-25T03:32:02;3.50;99.90
20102;DHT22;10210;52.284;9.892;2023-01-25T03:34:28;3.60;99.90
20102;DHT22;10210;52.284;9.892;2023-01-25T03:36:54;3.60;99.90
20102;DHT22;10210;52.284;9.892;2023-01-25T03:39:20;3.60;99.90
20102;DHT22;10210;52.284;9.892;2023-01-25T03:41:45;3.60;99.90
20102;DHT22;10210;52.284;9.892;2023-01-25T03:44:11;3.60;99.90
20102;DHT22;10210;52.284;9.892;2023-01-25T03:46:38;3.60;99.90
20102;DHT22;10210;52.284;9.892;2023-01-25T03:49:04;3.70;99.90
20102;DHT22;10210;52.284;9.892;2023-01-25T03:51:32;3.60;99.90
20102;DHT22;10210;52.284;9.892;2023-01-25T03:53:58;3.70;99.90
20102;DHT22;10210;52.284;9.892;2023-01-25T03:56:24;3.70;99.90
20102;DHT22;10210;52.284;9.892;2023-01-25T03:58:49;3.70;99.90
20102;DHT22;10210;52.284;9.892;2023-01-25T04:01:15;3.70;99.90
20102;DHT22;10210;52.284;9.892;2023-01-25T04:03:41;3.70;99.90
20102;DHT22;10210;52.284;9.892;2023-01-25T04:06:07;3.70;99.90
20102;DHT22;10210;52.284;9.892;2023-01-25T04:08:33;3.70;99.90
20102;DHT22;10210;52.284;9.892;2023-01-25T04:11:06;3.70;99.90
20102;DHT22;10210;52.284;9.892;2023-01-25T04:13:34;3.70;99.90
20102;DHT22;10210;52.284;9.892;2023-01-25T04:16:01;3.70;99.90
20102;DHT22;10210;52.284;9.892;2023-01-25T04:18:28;3.70;99.90
20102;DHT22;10210;52.284;9.892;2023-01-25T04:20:55;3.70;99.90
20102;DHT22;10210;52.284;9.892;2023-01-25T04:23:22;3.70;99.90
20102;DHT22;10210;52.284;9.892;2023-01-25T04:26:00;3.70;99.90
20102;DHT22;10210;52.284;9.892;2023-01-25T04:28:30;3.70;99.90
20102;DHT22;10210;52.284;9.892;2023-01-25T04:30:57;3.70;99.90
20102;DHT22;10210;52.284;9.892;2023-01-25T04:33:24;3.70;99.90
20102;DHT22;10210;52.284;9.892;2023-01-25T04:35:50;3.70;99.90
20102;DHT22;10210;52.284;9.892;2023-01-25T04:38:17;3.70;99.90
20102;DHT22;10210;52.284;9.892;2023-01-25T04:40:43;3.70;99.90
20102;DHT22;10210;52.284;9.892;2023-01-25T04:43:12;3.70;99.90
20102;DHT22;10210;52.284;9.892;2023-01-25T04:45:39;3.70;99.90
20102;DHT22;10210;52.284;9.892;2023-01-25T04:48:06;3.70;99.90
20102;DHT22;10210;52.284;9.892;2023-01-25T04:50:37;3.70;99.90
20102;DHT22;10210;52.284;9.892;2023-01-25T04:53:04;3.70;99.90
20102;DHT22;10210;52.284;9.892;2023-01-25T04:55:31;3.70;99.90
20102;DHT22;10210;52.284;9.892;2023-01-25T04:57:58;3.70;99.90
20102;DHT22;10210;52.284;9.892;2023-01-25T05:00:24;3.70;99.90
20102;DHT22;10210;52.284;9.892;2023-01-25T05:02:50;3.70;99.90
20102;DHT22;10210;52.284;9.892;2023-01-25T05:05:16;3.70;99.90
20102;DHT22;10210;52.284;9.892;2023-01-25T05:07:42;3.70;99.90
20102;DHT22;10210;52.284;9.892;2023-01-25T05:10:08;3.70;99.90
20102;DHT22;10210;52.284;9.892;2023-01-25T05:12:34;3.70;99.90
20102;DHT22;10210;52.284;9.892;2023-01-25T05:15:00;3.70;99.90
20102;DHT22;10210;52.284;9.892;2023-01-25T05:17:26;3.70;99.90
20102;DHT22;10210;52.284;9.892;2023-01-25T05:19:51;3.70;99.90
20102;DHT22;10210;52.284;9.892;2023-01-25T05:22:18;3.70;99.90
20102;DHT22;10210;52.284;9.892;2023-01-25T05:24:45;3.70;99.90
20102;DHT22;10210;52.284;9.892;2023-01-25T05:27:14;3.70;99.90
20102;DHT22;10210;52.284;9.892;2023-01-25T05:29:43;3.70;99.90
20102;DHT22;10210;52.284;9.892;2023-01-25T05:32:19;3.70;99.90
20102;DHT22;10210;52.284;9.892;2023-01-25T05:34:46;3.70;99.90
20102;DHT22;10210;52.284;9.892;2023-01-25T05:37:14;3.70;99.90
20102;DHT22;10210;52.284;9.892;2023-01-25T05:39:41;3.70;99.90
20102;DHT22;10210;52.284;9.892;2023-01-25T05:42:15;3.70;99.90
20102;DHT22;10210;52.284;9.892;2023-01-25T05:44:42;3.70;99.90
20102;DHT22;10210;52.284;9.892;2023-01-25T05:47:17;3.60;99.90
20102;DHT22;10210;52.284;9.892;2023-01-25T05:49:43;3.70;99.90
20102;DHT22;10210;52.284;9.892;2023-01-25T05:52:15;3.60;99.90
20102;DHT22;10210;52.284;9.892;2023-01-25T05:54:41;3.60;99.90
20102;DHT22;10210;52.284;9.892;2023-01-25T05:57:07;3.60;99.90
20102;DHT22;10210;52.284;9.892;2023-01-25T05:59:33;3.70;99.90
20102;DHT22;10210;52.284;9.892;2023-01-25T06:01:58;3.70;99.90
20102;DHT22;10210;52.284;9.892;2023-01-25T06:04:24;3.70;99.90
20102;DHT22;10210;52.284;9.892;2023-01-25T06:06:50;3.70;99.90
20102;DHT22;10210;52.284;9.892;2023-01-25T06:09:15;3.70;99.90
20102;DHT22;10210;52.284;9.892;2023-01-25T06:11:44;3.70;99.90
20102;DHT22;10210;52.284;9.892;2023-01-25T06:14:10;3.70;99.90
20102;DHT22;10210;52.284;9.892;2023-01-25T06:16:36;3.70;99.90
20102;DHT22;10210;52.284;9.892;2023-01-25T06:19:04;3.70;99.90
20102;DHT22;10210;52.284;9.892;2023-01-25T06:21:31;3.70;99.90
20102;DHT22;10210;52.284;9.892;2023-01-25T06:23:57;3.70;99.90
20102;DHT22;10210;52.284;9.892;2023-01-25T06:26:23;3.60;99.90
20102;DHT22;10210;52.284;9.892;2023-01-25T06:28:48;3.60;99.90
20102;DHT22;10210;52.284;9.892;2023-01-25T06:31:17;3.60;99.90
20102;DHT22;10210;52.284;9.892;2023-01-25T06:33:47;3.60;99.90
20102;DHT22;10210;52.284;9.892;2023-01-25T06:36:15;3.60;99.90
20102;DHT22;10210;52.284;9.892;2023-01-25T06:38:43;3.60;99.90
20102;DHT22;10210;52.284;9.892;2023-01-25T06:41:11;3.60;99.90
20102;DHT22;10210;52.284;9.892;2023-01-25T06:43:37;3.60;99.90
20102;DHT22;10210;52.284;9.892;2023-01-25T06:46:06;3.70;99.90
20102;DHT22;10210;52.284;9.892;2023-01-25T06:48:34;3.60;99.90
20102;DHT22;10210;52.284;9.892;2023-01-25T06:51:05;3.70;99.90
20102;DHT22;10210;52.284;9.892;2023-01-25T06:53:35;3.70;99.90
20102;DHT22;10210;52.284;9.892;2023-01-25T06:56:18;3.70;99.90
20102;DHT22;10210;52.284;9.892;2023-01-25T06:58:47;3.70;99.90
20102;DHT22;10210;52.284;9.892;2023-01-25T07:03:41;3.70;99.90
20102;DHT22;10210;52.284;9.892;2023-01-25T07:06:09;3.70;99.90
20102;DHT22;10210;52.284;9.892;2023-01-25T07:08:36;3.70;99.90
20102;DHT22;10210;52.284;9.892;2023-01-25T07:11:05;3.70;99.90
20102;DHT22;10210;52.284;9.892;2023-01-25T07:13:33;3.70;99.90
20102;DHT22;10210;52.284;9.892;2023-01-25T07:16:05;3.60;99.90
20102;DHT22;10210;52.284;9.892;2023-01-25T07:18:32;3.70;99.90
20102;DHT22;10210;52.284;9.892;2023-01-25T07:21:11;3.70;99.90
20102;DHT22;10210;52.284;9.892;2023-01-25T07:23:39;3.70;99.90
20102;DHT22;10210;52.284;9.892;2023-01-25T07:26:08;3.60;99.90
20102;DHT22;10210;52.284;9.892;2023-01-25T07:28:40;3.70;99.90
20102;DHT22;10210;52.284;9.892;2023-01-25T07:31:06;3.60;99.90
20102;DHT22;10210;52.284;9.892;2023-01-25T07:33:33;3.70;99.90
20102;DHT22;10210;52.284;9.892;2023-01-25T07:36:04;3.70;99.90
20102;DHT22;10210;52.284;9.892;2023-01-25T07:38:31;3.70;99.90
20102;DHT22;10210;52.284;9.892;2023-01-25T07:40:57;3.70;99.90
20102;DHT22;10210;52.284;9.892;2023-01-25T07:43:23;3.70;99.90
20102;DHT22;10210;52.284;9.892;2023-01-25T07:45:49;3.70;99.90
20102;DHT22;10210;52.284;9.892;2023-01-25T07:48:16;3.80;99.90
20102;DHT22;10210;52.284;9.892;2023-01-25T07:50:43;3.80;99.90
20102;DHT22;10210;52.284;9.892;2023-01-25T07:53:38;3.80;99.90
20102;DHT22;10210;52.284;9.892;2023-01-25T07:56:04;3.80;99.90
20102;DHT22;10210;52.284;9.892;2023-01-25T07:58:31;3.80;99.90
20102;DHT22;10210;52.284;9.892;2023-01-25T08:00:56;3.80;99.90
20102;DHT22;10210;52.284;9.892;2023-01-25T08:03:22;3.80;99.90
20102;DHT22;10210;52.284;9.892;2023-01-25T08:05:48;3.80;99.90
20102;DHT22;10210;52.284;9.892;2023-01-25T08:08:14;3.80;99.90
20102;DHT22;10210;52.284;9.892;2023-01-25T08:10:39;3.80;99.90
20102;DHT22;10210;52.284;9.892;2023-01-25T08:13:05;3.80;99.90
20102;DHT22;10210;52.284;9.892;2023-01-25T08:15:31;3.80;99.90
20102;DHT22;10210;52.284;9.892;2023-01-25T08:18:00;3.80;99.90
20102;DHT22;10210;52.284;9.892;2023-01-25T08:20:26;3.70;99.90
20102;DHT22;10210;52.284;9.892;2023-01-25T08:22:52;3.70;99.90
20102;DHT22;10210;52.284;9.892;2023-01-25T08:25:18;3.60;99.90
20102;DHT22;10210;52.284;9.892;2023-01-25T08:27:43;3.70;99.90
20102;DHT22;10210;52.284;9.892;2023-01-25T08:30:10;3.70;99.90
20102;DHT22;10210;52.284;9.892;2023-01-25T08:32:38;3.70;99.90
20102;DHT22;10210;52.284;9.892;2023-01-25T08:35:04;3.70;99.90
20102;DHT22;10210;52.284;9.892;2023-01-25T08:37:31;3.70;99.90
20102;DHT22;10210;52.284;9.892;2023-01-25T08:39:58;3.70;99.90
20102;DHT22;10210;52.284;9.892;2023-01-25T08:42:24;3.70;99.90
20102;DHT22;10210;52.284;9.892;2023-01-25T08:44:51;3.70;99.90
20102;DHT22;10210;52.284;9.892;2023-01-25T08:47:20;3.70;99.90
20102;DHT22;10210;52.284;9.892;2023-01-25T08:49:46;3.70;99.90
20102;DHT22;10210;52.284;9.892;2023-01-25T08:52:11;3.80;99.90
20102;DHT22;10210;52.284;9.892;2023-01-25T08:54:39;3.80;99.90
20102;DHT22;10210;52.284;9.892;2023-01-25T08:57:08;3.80;99.90
20102;DHT22;10210;52.284;9.892;2023-01-25T08:59:34;3.70;99.90
20102;DHT22;10210;52.284;9.892;2023-01-25T09:02:00;3.80;99.90
20102;DHT22;10210;52.284;9.892;2023-01-25T09:04:26;3.80;99.90
20102;DHT22;10210;52.284;9.892;2023-01-25T09:06:53;3.80;99.90
20102;DHT22;10210;52.284;9.892;2023-01-25T09:09:20;3.70;99.90
20102;DHT22;10210;52.284;9.892;2023-01-25T09:11:49;3.80;99.90
20102;DHT22;10210;52.284;9.892;2023-01-25T09:14:15;3.80;99.90
20102;DHT22;10210;52.284;9.892;2023-01-25T09:16:41;3.80;99.90
20102;DHT22;10210;52.284;9.892;2023-01-25T09:19:06;3.80;99.90
20102;DHT22;10210;52.284;9.892;2023-01-25T09:21:32;3.80;99.90
20102;DHT22;10210;52.284;9.892;2023-01-25T09:23:59;3.80;99.90
20102;DHT22;10210;52.284;9.892;2023-01-25T09:26:25;3.80;99.90
20102;DHT22;10210;52.284;9.892;2023-01-25T09:28:52;3.80;99.90
20102;DHT22;10210;52.284;9.892;2023-01-25T09:31:19;3.80;99.90
20102;DHT22;10210;52.284;9.892;2023-01-25T09:33:46;3.80;99.90
20102;DHT22;10210;52.284;9.892;2023-01-25T09:36:12;3.80;99.90
20102;DHT22;10210;52.284;9.892;2023-01-25T09:38:38;3.80;99.90
20102;DHT22;10210;52.284;9.892;2023-01-25T09:44:52;3.70;99.90
20102;DHT22;10210;52.284;9.892;2023-01-25T09:47:54;3.70;99.90
20102;DHT22;10210;52.284;9.892;2023-01-25T09:53:52;3.70;99.90
20102;DHT22;10210;52.284;9.892;2023-01-25T09:56:26;3.70;99.90
20102;DHT22;10210;52.284;9.892;2023-01-25T09:58:59;3.70;99.90
20102;DHT22;10210;52.284;9.892;2023-01-25T10:04:50;3.70;99.90
20102;DHT22;10210;52.284;9.892;2023-01-25T10:07:33;3.70;99.90
20102;DHT22;10210;52.284;9.892;2023-01-25T10:10:20;3.70;99.90
20102;DHT22;10210;52.284;9.892;2023-01-25T10:12:52;3.70;99.90
20102;DHT22;10210;52.284;9.892;2023-01-25T10:15:22;3.70;99.90
20102;DHT22;10210;52.284;9.892;2023-01-25T10:18:09;3.70;99.90
20102;DHT22;10210;52.284;9.892;2023-01-25T10:20:48;3.70;99.90
20102;DHT22;10210;52.284;9.892;2023-01-25T10:27:01;3.80;99.90
20102;DHT22;10210;52.284;9.892;2023-01-25T10:29:35;3.80;99.90
20102;DHT22;10210;52.284;9.892;2023-01-25T10:32:27;3.80;99.90
20102;DHT22;10210;52.284;9.892;2023-01-25T10:35:13;3.80;99.90
20102;DHT22;10210;52.284;9.892;2023-01-25T10:37:44;3.80;99.90
20102;DHT22;10210;52.284;9.892;2023-01-25T10:43:01;3.80;99.90
20102;DHT22;10210;52.284;9.892;2023-01-25T10:45:30;3.80;99.90
20102;DHT22;10210;52.284;9.892;2023-01-25T10:48:06;3.80;99.90
20102;DHT22;10210;52.284;9.892;2023-01-25T10:53:28;3.80;99.90
20102;DHT22;10210;52.284;9.892;2023-01-25T10:56:15;3.80;99.90
20102;DHT22;10210;52.284;9.892;2023-01-25T10:58:51;3.80;99.90
20102;DHT22;10210;52.284;9.892;2023-01-25T11:01:31;3.80;99.90
20102;DHT22;10210;52.284;9.892;2023-01-25T11:04:00;3.80;99.90
20102;DHT22;10210;52.284;9.892;2023-01-25T11:06:35;3.80;99.90
20102;DHT22;10210;52.284;9.892;2023-01-25T11:11:58;3.80;99.90
20102;DHT22;10210;52.284;9.892;2023-01-25T11:14:27;3.80;99.90
20102;DHT22;10210;52.284;9.892;2023-01-25T11:16:56;3.80;99.90
20102;DHT22;10210;52.284;9.892;2023-01-25T11:19:33;3.80;99.90
20102;DHT22;10210;52.284;9.892;2023-01-25T11:24:43;3.70;99.90
20102;DHT22;10210;52.284;9.892;2023-01-25T11:30:09;3.70;99.90
20102;DHT22;10210;52.284;9.892;2023-01-25T11:32:40;3.70;99.90
20102;DHT22;10210;52.284;9.892;2023-01-25T11:35:24;3.70;99.90
20102;DHT22;10210;52.284;9.892;2023-01-25T11:38:18;3.70;99.90
20102;DHT22;10210;52.284;9.892;2023-01-25T11:41:10;3.70;99.90
20102;DHT22;10210;52.284;9.892;2023-01-25T11:46:36;3.80;99.90
20102;DHT22;10210;52.284;9.892;2023-01-25T11:55:25;3.80;99.90
20102;DHT22;10210;52.284;9.892;2023-01-25T12:09:07;3.80;99.90
20102;DHT22;10210;52.284;9.892;2023-01-25T12:12:10;3.80;99.90
20102;DHT22;10210;52.284;9.892;2023-01-25T12:15:17;3.80;99.90
20102;DHT22;10210;52.284;9.892;2023-01-25T12:24:42;3.80;99.90
20102;DHT22;10210;52.284;9.892;2023-01-25T12:33:34;3.80;99.90
20102;DHT22;10210;52.284;9.892;2023-01-25T12:39:12;3.80;99.90
20102;DHT22;10210;52.284;9.892;2023-01-25T12:50:19;3.70;99.90
20102;DHT22;10210;52.284;9.892;2023-01-25T12:53:25;3.70;99.90
20102;DHT22;10210;52.284;9.892;2023-01-25T12:55:56;3.70;99.90
20102;DHT22;10210;52.284;9.892;2023-01-25T13:01:08;3.70;99.90
20102;DHT22;10210;52.284;9.892;2023-01-25T13:06:43;3.60;99.90
20102;DHT22;10210;52.284;9.892;2023-01-25T13:12:10;3.60;99.90
20102;DHT22;10210;52.284;9.892;2023-01-25T13:14:38;3.60;99.90
20102;DHT22;10210;52.284;9.892;2023-01-25T13:23:04;3.60;99.90
20102;DHT22;10210;52.284;9.892;2023-01-25T13:25:49;3.60;99.90
20102;DHT22;10210;52.284;9.892;2023-01-25T13:28:39;3.70;99.90
20102;DHT22;10210;52.284;9.892;2023-01-25T13:31:06;3.60;99.90
20102;DHT22;10210;52.284;9.892;2023-01-25T13:33:34;3.60;99.90
20102;DHT22;10210;52.284;9.892;2023-01-25T13:37:12;3.70;99.90
20102;DHT22;10210;52.284;9.892;2023-01-25T13:41:59;3.70;99.90
20102;DHT22;10210;52.284;9.892;2023-01-25T13:44:29;3.70;99.90
20102;DHT22;10210;52.284;9.892;2023-01-25T13:46:59;3.70;99.90
20102;DHT22;10210;52.284;9.892;2023-01-25T13:49:38;3.60;99.90
20102;DHT22;10210;52.284;9.892;2023-01-25T13:52:06;3.70;99.90
20102;DHT22;10210;52.284;9.892;2023-01-25T13:54:43;3.60;99.90
20102;DHT22;10210;52.284;9.892;2023-01-25T13:57:21;3.70;99.90
20102;DHT22;10210;52.284;9.892;2023-01-25T13:59:57;3.70;99.90
20102;DHT22;10210;52.284;9.892;2023-01-25T14:02:30;3.70;99.90
20102;DHT22;10210;52.284;9.892;2023-01-25T14:04:59;3.70;99.90
20102;DHT22;10210;52.284;9.892;2023-01-25T14:07:32;3.70;99.90
20102;DHT22;10210;52.284;9.892;2023-01-25T14:10:03;3.60;99.90
20102;DHT22;10210;52.284;9.892;2023-01-25T14:12:41;3.70;99.90
20102;DHT22;10210;52.284;9.892;2023-01-25T14:15:23;3.70;99.90
20102;DHT22;10210;52.284;9.892;2023-01-25T14:18:15;3.70;99.90
20102;DHT22;10210;52.284;9.892;2023-01-25T14:20:44;3.70;99.90
20102;DHT22;10210;52.284;9.892;2023-01-25T14:23:23;3.70;99.90
20102;DHT22;10210;52.284;9.892;2023-01-25T14:25:54;3.70;99.90
20102;DHT22;10210;52.284;9.892;2023-01-25T14:28:24;3.70;99.90
20102;DHT22;10210;52.284;9.892;2023-01-25T14:30:53;3.70;99.90
20102;DHT22;10210;52.284;9.892;2023-01-25T14:33:32;3.70;99.90
20102;DHT22;10210;52.284;9.892;2023-01-25T14:36:08;3.70;99.90
20102;DHT22;10210;52.284;9.892;2023-01-25T14:38:40;3.70;99.90
20102;DHT22;10210;52.284;9.892;2023-01-25T14:41:19;3.60;99.90
20102;DHT22;10210;52.284;9.892;2023-01-25T14:44:11;3.60;99.90
20102;DHT22;10210;52.284;9.892;2023-01-25T14:46:39;3.60;99.90
20102;DHT22;10210;52.284;9.892;2023-01-25T14:49:16;3.60;99.90
20102;DHT22;10210;52.284;9.892;2023-01-25T14:52:09;3.60;99.90
20102;DHT22;10210;52.284;9.892;2023-01-25T14:54:55;3.60;99.90
20102;DHT22;10210;52.284;9.892;2023-01-25T15:00:22;3.60;99.90
20102;DHT22;10210;52.284;9.892;2023-01-25T15:02:58;3.60;99.90
20102;DHT22;10210;52.284;9.892;2023-01-25T15:05:28;3.60;99.90
20102;DHT22;10210;52.284;9.892;2023-01-25T15:08:25;3.60;99.90
20102;DHT22;10210;52.284;9.892;2023-01-25T15:10:57;3.60;99.90
20102;DHT22;10210;52.284;9.892;2023-01-25T15:13:44;3.60;99.90
20102;DHT22;10210;52.284;9.892;2023-01-25T15:16:10;3.60;99.90
20102;DHT22;10210;52.284;9.892;2023-01-25T15:21:26;3.60;99.90
20102;DHT22;10210;52.284;9.892;2023-01-25T15:23:55;3.70;99.90
20102;DHT22;10210;52.284;9.892;2023-01-25T15:26:23;3.60;99.90
20102;DHT22;10210;52.284;9.892;2023-01-25T15:28:58;3.60;99.90
20102;DHT22;10210;52.284;9.892;2023-01-25T15:31:31;3.60;99.90
20102;DHT22;10210;52.284;9.892;2023-01-25T15:33:58;3.60;99.90
20102;DHT22;10210;52.284;9.892;2023-01-25T15:36:26;3.60;99.90
20102;DHT22;10210;52.284;9.892;2023-01-25T15:38:53;3.60;99.90
20102;DHT22;10210;52.284;9.892;2023-01-25T15:41:19;3.60;99.90
20102;DHT22;10210;52.284;9.892;2023-01-25T15:43:45;3.60;99.90
20102;DHT22;10210;52.284;9.892;2023-01-25T15:46:24;3.60;99.90
20102;DHT22;10210;52.284;9.892;2023-01-25T15:48:52;3.60;99.90
20102;DHT22;10210;52.284;9.892;2023-01-25T15:51:19;3.60;99.90
20102;DHT22;10210;52.284;9.892;2023-01-25T15:53:46;3.60;99.90
20102;DHT22;10210;52.284;9.892;2023-01-25T15:58:58;3.60;99.90
20102;DHT22;10210;52.284;9.892;2023-01-25T16:01:27;3.60;99.90
20102;DHT22;10210;52.284;9.892;2023-01-25T16:03:56;3.60;99.90
20102;DHT22;10210;52.284;9.892;2023-01-25T16:06:46;3.50;99.90
20102;DHT22;10210;52.284;9.892;2023-01-25T16:11:51;3.60;99.90
20102;DHT22;10210;52.284;9.892;2023-01-25T16:14:18;3.60;99.90
20102;DHT22;10210;52.284;9.892;2023-01-25T16:16:47;3.60;99.90
20102;DHT22;10210;52.284;9.892;2023-01-25T16:19:15;3.60;99.90
20102;DHT22;10210;52.284;9.892;2023-01-25T16:21:43;3.60;99.90
20102;DHT22;10210;52.284;9.892;2023-01-25T16:24:09;3.50;99.90
20102;DHT22;10210;52.284;9.892;2023-01-25T16:26:39;3.50;99.90
20102;DHT22;10210;52.284;9.892;2023-01-25T16:29:14;3.50;99.90
20102;DHT22;10210;52.284;9.892;2023-01-25T16:31:39;3.50;99.90
20102;DHT22;10210;52.284;9.892;2023-01-25T16:34:05;3.50;99.90
20102;DHT22;10210;52.284;9.892;2023-01-25T16:36:31;3.50;99.90
20102;DHT22;10210;52.284;9.892;2023-01-25T16:39:20;3.50;99.90
20102;DHT22;10210;52.284;9.892;2023-01-25T16:41:47;3.50;99.90
20102;DHT22;10210;52.284;9.892;2023-01-25T16:44:13;3.50;99.90
20102;DHT22;10210;52.284;9.892;2023-01-25T16:46:40;3.50;99.90
20102;DHT22;10210;52.284;9.892;2023-01-25T16:49:08;3.50;99.90
20102;DHT22;10210;52.284;9.892;2023-01-25T16:51:38;3.50;99.90
20102;DHT22;10210;52.284;9.892;2023-01-25T16:54:04;3.50;99.90
20102;DHT22;10210;52.284;9.892;2023-01-25T16:56:31;3.50;99.90
20102;DHT22;10210;52.284;9.892;2023-01-25T16:59:01;3.50;99.90
20102;DHT22;10210;52.284;9.892;2023-01-25T17:01:28;3.50;99.90
20102;DHT22;10210;52.284;9.892;2023-01-25T17:03:55;3.50;99.90
20102;DHT22;10210;52.284;9.892;2023-01-25T17:06:30;3.50;99.90
20102;DHT22;10210;52.284;9.892;2023-01-25T17:08:59;3.50;99.90
20102;DHT22;10210;52.284;9.892;2023-01-25T17:11:27;3.50;99.90
20102;DHT22;10210;52.284;9.892;2023-01-25T17:13:57;3.50;99.90
20102;DHT22;10210;52.284;9.892;2023-01-25T17:16:25;3.50;99.90
20102;DHT22;10210;52.284;9.892;2023-01-25T17:19:00;3.50;99.90
20102;DHT22;10210;52.284;9.892;2023-01-25T17:21:29;3.50;99.90
20102;DHT22;10210;52.284;9.892;2023-01-25T17:23:56;3.50;99.90
20102;DHT22;10210;52.284;9.892;2023-01-25T17:26:23;3.60;99.90
20102;DHT22;10210;52.284;9.892;2023-01-25T17:28:49;3.60;99.90
20102;DHT22;10210;52.284;9.892;2023-01-25T17:31:18;3.60;99.90
20102;DHT22;10210;52.284;9.892;2023-01-25T17:33:48;3.50;99.90
20102;DHT22;10210;52.284;9.892;2023-01-25T17:36:15;3.50;99.90
20102;DHT22;10210;52.284;9.892;2023-01-25T17:38:41;3.60;99.90
20102;DHT22;10210;52.284;9.892;2023-01-25T17:41:09;3.50;99.90
20102;DHT22;10210;52.284;9.892;2023-01-25T17:43:37;3.50;99.90
20102;DHT22;10210;52.284;9.892;2023-01-25T17:46:22;3.50;99.90
20102;DHT22;10210;52.284;9.892;2023-01-25T17:48:54;3.40;99.90
20102;DHT22;10210;52.284;9.892;2023-01-25T17:51:21;3.40;99.90
20102;DHT22;10210;52.284;9.892;2023-01-25T17:53:47;3.40;99.90
20102;DHT22;10210;52.284;9.892;2023-01-25T17:56:13;3.30;99.90
20102;DHT22;10210;52.284;9.892;2023-01-25T17:58:40;3.30;99.90
20102;DHT22;10210;52.284;9.892;2023-01-25T18:01:19;3.30;99.90